Sembria — V2QG7 — position and weather

sailwx.info

Track history (hours):
 
Tides and Currents Weather Stations Pressure Air Temp Water Temp Dewpoint Dewpoint Depression Visibility Wind Speed Wind Dir Waves Ship Positions

Sembria

Last reported at 2014-Aug-15 04:18 UTC. Time now 2014-Aug-23 11:30 UTC.
Position N 45°09' E 029°40'.
Warning: this ship's position is 8 days out of date.

Length 107 m; draft 3.3 m.

Type: Cargo ship. MMSI: 304010760.

Date/timePositionNaut miles runAvg speedWind from/ knotsBaromVisibWave heightAir tempDewpointWater temp
2014-Aug-15 04:18N 45°09' E 029°40'2 2.6
2014-Aug-15 03:31N 45°10' E 029°42'5 5.1
2014-Aug-15 02:32N 45°07' E 029°48'19 7.7
2014-Aug-15 00:05N 44°48' E 029°49'13 8.0
2014-Aug-14 22:27N 44°35' E 029°48'220 8.8
2014-Aug-13 21:33N 40°58' E 028°59'3 2.7
2014-Aug-13 20:32N 40°57' E 028°56'1 0.1
2014-Aug-13 08:05N 40°58' E 028°56'0 0.0
2014-Aug-12 08:17N 40°58' E 028°56'0 0.0
2014-Aug-12 07:29N 40°58' E 028°56'0 0.0
2014-Aug-12 06:05N 40°58' E 028°56'0 0.0
2014-Aug-11 22:17N 40°58' E 028°56'0 0.0
2014-Aug-11 16:17N 40°58' E 028°56'0 0.0
2014-Aug-11 13:23N 40°58' E 028°56'0 0.0
2014-Aug-11 11:29N 40°58' E 028°56'0 0.0
2014-Aug-11 10:29N 40°58' E 028°56'0 0.0
2014-Aug-11 09:29N 40°58' E 028°56'0 0.0
2014-Aug-11 07:29N 40°58' E 028°56'0 0.0
2014-Aug-11 02:23N 40°58' E 028°56'0 0.0
2014-Aug-10 21:11N 40°58' E 028°56'0 0.0
2014-Aug-10 19:23N 40°58' E 028°56'0 0.0
2014-Aug-10 15:05N 40°58' E 028°56'0 0.0
2014-Aug-10 13:17N 40°58' E 028°56'0 0.1
2014-Aug-10 11:17N 40°58' E 028°56'0 0.0
2014-Aug-10 08:23N 40°58' E 028°56'0 0.0
2014-Aug-09 22:05N 40°58' E 028°56'0 0.0
2014-Aug-09 15:11N 40°58' E 028°56'0 0.0
2014-Aug-09 13:17N 40°58' E 028°56'0 0.0
2014-Aug-09 12:23N 40°58' E 028°56'0 0.0
2014-Aug-09 11:29N 40°58' E 028°56'0 0.0
2014-Aug-09 10:29N 40°58' E 028°56'0 0.0
2014-Aug-09 09:17N 40°58' E 028°56'0 0.0
2014-Aug-09 06:11N 40°58' E 028°56'0 0.0
2014-Aug-09 05:23N 40°58' E 028°56'0 0.0
2014-Aug-09 03:29N 40°58' E 028°56'0 0.0
2014-Aug-09 02:29N 40°58' E 028°56'0 0.0
2014-Aug-09 01:29N 40°58' E 028°56'0 0.0
2014-Aug-08 22:23N 40°58' E 028°56'0 0.0
2014-Aug-08 19:17N 40°58' E 028°56'0 0.0
2014-Aug-08 18:11N 40°58' E 028°56'0 0.0
2014-Aug-08 17:23N 40°58' E 028°56'0 0.0
2014-Aug-08 16:29N 40°58' E 028°56'0 0.0
2014-Aug-08 15:11N 40°58' E 028°56'0 0.0
2014-Aug-08 13:29N 40°58' E 028°56'0 0.0
2014-Aug-08 08:29N 40°58' E 028°56'0 0.0
2014-Aug-08 07:23N 40°58' E 028°56'0 0.0
2014-Aug-07 14:20N 40°58' E 028°56'0 0.1
2014-Aug-07 13:26N 40°58' E 028°56'0 0.1
2014-Aug-07 11:32N 40°58' E 028°56'0 0.0
2014-Aug-07 07:08N 40°58' E 028°56'0 0.0
2014-Aug-07 04:26N 40°58' E 028°56'0 0.0
2014-Aug-07 00:20N 40°58' E 028°56'0 0.0
2014-Aug-06 23:32N 40°58' E 028°56'0 0.0
2014-Aug-06 22:14N 40°58' E 028°56'0 0.0
2014-Aug-06 21:08N 40°58' E 028°56'0 0.0
2014-Aug-06 16:26N 40°58' E 028°56'0 0.0
2014-Aug-06 13:14N 40°58' E 028°56'0 0.0
2014-Aug-06 11:32N 40°58' E 028°56'0 0.0
2014-Aug-06 10:32N 40°58' E 028°56'0 0.0
2014-Aug-06 09:14N 40°58' E 028°56'0 0.0
2014-Aug-06 08:26N 40°58' E 028°56'0 0.0
2014-Aug-06 00:26N 40°58' E 028°56'0 0.0
2014-Aug-05 16:08N 40°58' E 028°56'0 0.1
2014-Aug-05 15:20N 40°58' E 028°56'0 0.0
2014-Aug-05 14:32N 40°58' E 028°56'0 0.0
2014-Aug-05 13:32N 40°58' E 028°56'0 0.0
2014-Aug-05 12:26N 40°58' E 028°56'0 0.0
2014-Aug-05 11:26N 40°58' E 028°56'0 0.0
2014-Aug-05 08:32N 40°58' E 028°56'0 0.0
2014-Aug-05 06:20N 40°58' E 028°56'  
Track history (hours):
 
Tides and Currents Weather Stations Pressure Air Temp Water Temp Dewpoint Dewpoint Depression Visibility Wind Speed Wind Dir Waves Ship Positions

Sembria

Last reported at 2014-Aug-15 04:18 UTC. Time now 2014-Aug-23 11:30 UTC.
Position N 45°09' E 029°40'.
Warning: this ship's position is 8 days out of date.

Length 107 m; draft 3.3 m.

Type: Cargo ship. MMSI: 304010760.

Date/timePositionNaut miles runAvg speedWind from/ knotsBaromVisibWave heightAir tempDewpointWater temp
2014-Aug-15 04:18N 45°09' E 029°40'2 2.6
2014-Aug-15 03:31N 45°10' E 029°42'5 5.1
2014-Aug-15 02:32N 45°07' E 029°48'19 7.7
2014-Aug-15 00:05N 44°48' E 029°49'13 8.0
2014-Aug-14 22:27N 44°35' E 029°48'220 8.8
2014-Aug-13 21:33N 40°58' E 028°59'3 2.7
2014-Aug-13 20:32N 40°57' E 028°56'1 0.1
2014-Aug-13 08:05N 40°58' E 028°56'0 0.0
2014-Aug-12 08:17N 40°58' E 028°56'0 0.0
2014-Aug-12 07:29N 40°58' E 028°56'0 0.0
2014-Aug-12 06:05N 40°58' E 028°56'0 0.0
2014-Aug-11 22:17N 40°58' E 028°56'0 0.0
2014-Aug-11 16:17N 40°58' E 028°56'0 0.0
2014-Aug-11 13:23N 40°58' E 028°56'0 0.0
2014-Aug-11 11:29N 40°58' E 028°56'0 0.0
2014-Aug-11 10:29N 40°58' E 028°56'0 0.0
2014-Aug-11 09:29N 40°58' E 028°56'0 0.0
2014-Aug-11 07:29N 40°58' E 028°56'0 0.0
2014-Aug-11 02:23N 40°58' E 028°56'0 0.0
2014-Aug-10 21:11N 40°58' E 028°56'0 0.0
2014-Aug-10 19:23N 40°58' E 028°56'0 0.0
2014-Aug-10 15:05N 40°58' E 028°56'0 0.0
2014-Aug-10 13:17N 40°58' E 028°56'0 0.1
2014-Aug-10 11:17N 40°58' E 028°56'0 0.0
2014-Aug-10 08:23N 40°58' E 028°56'0 0.0
2014-Aug-09 22:05N 40°58' E 028°56'0 0.0
2014-Aug-09 15:11N 40°58' E 028°56'0 0.0
2014-Aug-09 13:17N 40°58' E 028°56'0 0.0
2014-Aug-09 12:23N 40°58' E 028°56'0 0.0
2014-Aug-09 11:29N 40°58' E 028°56'0 0.0
2014-Aug-09 10:29N 40°58' E 028°56'0 0.0
2014-Aug-09 09:17N 40°58' E 028°56'0 0.0
2014-Aug-09 06:11N 40°58' E 028°56'0 0.0
2014-Aug-09 05:23N 40°58' E 028°56'0 0.0
2014-Aug-09 03:29N 40°58' E 028°56'0 0.0
2014-Aug-09 02:29N 40°58' E 028°56'0 0.0
2014-Aug-09 01:29N 40°58' E 028°56'0 0.0
2014-Aug-08 22:23N 40°58' E 028°56'0 0.0
2014-Aug-08 19:17N 40°58' E 028°56'0 0.0
2014-Aug-08 18:11N 40°58' E 028°56'0 0.0
2014-Aug-08 17:23N 40°58' E 028°56'0 0.0
2014-Aug-08 16:29N 40°58' E 028°56'0 0.0
2014-Aug-08 15:11N 40°58' E 028°56'0 0.0
2014-Aug-08 13:29N 40°58' E 028°56'0 0.0
2014-Aug-08 08:29N 40°58' E 028°56'0 0.0
2014-Aug-08 07:23N 40°58' E 028°56'0 0.0
2014-Aug-07 14:20N 40°58' E 028°56'0 0.1
2014-Aug-07 13:26N 40°58' E 028°56'0 0.1
2014-Aug-07 11:32N 40°58' E 028°56'0 0.0
2014-Aug-07 07:08N 40°58' E 028°56'0 0.0
2014-Aug-07 04:26N 40°58' E 028°56'0 0.0
2014-Aug-07 00:20N 40°58' E 028°56'0 0.0
2014-Aug-06 23:32N 40°58' E 028°56'0 0.0
2014-Aug-06 22:14N 40°58' E 028°56'0 0.0
2014-Aug-06 21:08N 40°58' E 028°56'0 0.0
2014-Aug-06 16:26N 40°58' E 028°56'0 0.0
2014-Aug-06 13:14N 40°58' E 028°56'0 0.0
2014-Aug-06 11:32N 40°58' E 028°56'0 0.0
2014-Aug-06 10:32N 40°58' E 028°56'0 0.0
2014-Aug-06 09:14N 40°58' E 028°56'0 0.0
2014-Aug-06 08:26N 40°58' E 028°56'0 0.0
2014-Aug-06 00:26N 40°58' E 028°56'0 0.0
2014-Aug-05 16:08N 40°58' E 028°56'0 0.1
2014-Aug-05 15:20N 40°58' E 028°56'0 0.0
2014-Aug-05 14:32N 40°58' E 028°56'0 0.0
2014-Aug-05 13:32N 40°58' E 028°56'0 0.0
2014-Aug-05 12:26N 40°58' E 028°56'0 0.0
2014-Aug-05 11:26N 40°58' E 028°56'0 0.0
2014-Aug-05 08:32N 40°58' E 028°56'0 0.0
2014-Aug-05 06:20N 40°58' E 028°56'  

Dump ship's entire track history